M I D A S
Marine Information and Data Acquisition System
Tripno 2276 of the Zeeleeuw from 2012-03-15 07:47:01 to 2012-03-15 15:21:42
Back to CruiseResearch ActivitiesStationsMapUnderway DataData graphs

EquipmentUnitsComment
TimeDGPSUTC
LatitudeDGPSDM.mWGS84
LongitudeDGPSDM.mWGS84
HeadingGyrodeg 
SOGDGPSknotsSpeed over ground
COGDGPSdegCourse over ground
DepthEcho soundermeters200 kHz
Missing or incorrect values are displayed as -999
Navigation data collected by the RV Zeeleeuw from 2012-03-15 06:55:46 to 2012-03-15 15:38:40
Time Latitude Longitude Heading SOG COG Depth
2012-03-15 06:56:51 51°13.635 2°56.018 126.3 0.1 194 -999
2012-03-15 06:57:51 51°13.636 2°56.019 126.1 0.2 18 -999
2012-03-15 06:58:51 51°13.635 2°56.018 125.9 0.1 202 -999
2012-03-15 06:59:51 51°13.635 2°56.018 126.5 0.2 203 -999
2012-03-15 07:00:51 51°13.636 2°56.019 124.9 -999 1 -999
2012-03-15 07:01:50 51°13.636 2°56.018 125.8 -999 198 -999
2012-03-15 07:02:51 51°13.637 2°56.02 126.4 0.1 44 -999
2012-03-15 07:03:50 51°13.636 2°56.019 128.2 0.1 198 -999
2012-03-15 07:04:51 51°13.636 2°56.02 128.3 0.1 26 -999
2012-03-15 07:05:51 51°13.636 2°56.019 128.3 0.1 204 -999
2012-03-15 07:06:51 51°13.636 2°56.019 128.5 -999 173 -999
2012-03-15 07:07:51 51°13.636 2°56.02 127.9 0.2 21 -999
2012-03-15 07:08:51 51°13.636 2°56.02 128.2 -999 216 -999
2012-03-15 07:09:51 51°13.636 2°56.021 128.1 0.1 21 -999
2012-03-15 07:10:51 51°13.635 2°56.019 128.3 0.3 200 -999
2012-03-15 07:11:51 51°13.635 2°56.019 128.3 0.2 197 -999
2012-03-15 07:12:51 51°13.636 2°56.02 128.3 0.3 17 -999
2012-03-15 07:13:51 51°13.635 2°56.02 128.3 0.1 347 -999
2012-03-15 07:14:51 51°13.635 2°56.019 128.3 0.1 40 -999
2012-03-15 07:15:51 51°13.635 2°56.02 127.9 0.1 42 -999
2012-03-15 07:16:50 51°13.635 2°56.02 128.1 0.1 196 -999
2012-03-15 07:17:50 51°13.635 2°56.02 127.9 -999 13 -999
2012-03-15 07:18:51 51°13.635 2°56.019 127.9 0.1 225 -999
2012-03-15 07:19:51 51°13.636 2°56.02 127.9 -999 101 -999
2012-03-15 07:20:51 51°13.636 2°56.02 127.9 0.1 -999 -999
2012-03-15 07:21:50 51°13.636 2°56.02 127.9 -999 188 -999
2012-03-15 07:22:50 51°13.636 2°56.02 128 -999 61 -999
2012-03-15 07:23:50 51°13.636 2°56.019 128.1 -999 261 -999
2012-03-15 07:24:50 51°13.636 2°56.019 128.4 0.1 39 -999
2012-03-15 07:25:51 51°13.635 2°56.019 128.2 -999 170 -999
2012-03-15 07:26:51 51°13.635 2°56.019 127.8 -999 272 -999
2012-03-15 07:27:51 51°13.635 2°56.019 127.8 0.1 33 -999
2012-03-15 07:28:51 51°13.635 2°56.019 127.9 0.1 47 -999
2012-03-15 07:29:51 51°13.635 2°56.019 128.3 0.1 21 -999
2012-03-15 07:30:51 51°13.635 2°56.019 128.4 0.1 32 -999
2012-03-15 07:31:51 51°13.635 2°56.019 128.3 0.1 216 -999
2012-03-15 07:32:51 51°13.635 2°56.019 127.7 0.1 65 -999
2012-03-15 07:33:51 51°13.635 2°56.019 117.5 -999 62 -999
2012-03-15 07:34:51 51°13.636 2°56.017 106.5 0.4 307 -999
2012-03-15 07:35:51 51°13.647 2°55.955 107.2 3.3 286 -999
2012-03-15 07:36:51 51°13.671 2°55.863 121.4 4.5 299 -999
2012-03-15 07:37:51 51°13.718 2°55.772 140.2 2.7 312 -999
2012-03-15 07:38:51 51°13.773 2°55.688 143.9 5.7 321 -999
2012-03-15 07:39:51 51°13.865 2°55.627 175.8 6.1 354 -999
2012-03-15 07:40:51 51°13.948 2°55.657 210.9 4 26 -999
2012-03-15 07:41:51 51°13.972 2°55.67 252.4 1.1 280 -999
2012-03-15 07:42:51 51°13.994 2°55.607 310.6 4.6 314 -999
2012-03-15 07:43:51 51°14.073 2°55.503 324.4 7.2 324 -999
2012-03-15 07:44:51 51°14.184 2°55.392 328.4 8.2 326 -999
2012-03-15 07:45:51 51°14.303 2°55.271 328.2 9.2 328 -999
2012-03-15 07:46:51 51°14.435 2°55.136 329.9 9.9 329 -999
2012-03-15 07:47:49 51°14.581 2°55 331.3 11 328 13.3
2012-03-15 07:48:48 51°14.73 2°54.829 323.5 11.5 325 12.8
2012-03-15 07:49:47 51°14.896 2°54.648 327.6 13 325 13.2
2012-03-15 07:50:47 51°15.069 2°54.445 325.9 12.8 325 12.5
2012-03-15 07:51:47 51°15.248 2°54.265 328.5 12.7 328 11.7
2012-03-15 07:52:47 51°15.416 2°54.065 318.1 12.6 318 11.6
2012-03-15 07:53:47 51°15.575 2°53.846 323.2 12.7 325 12.7
2012-03-15 07:54:48 51°15.756 2°53.653 323.7 13 324 13
2012-03-15 07:55:47 51°15.922 2°53.454 325.5 12.8 326 13.3
2012-03-15 07:56:47 51°16.091 2°53.25 320.5 12.8 319 13.5
2012-03-15 07:57:47 51°16.257 2°53.04 326 12.8 329 13.7
2012-03-15 07:58:47 51°16.443 2°52.872 330 12.8 328 13.5
2012-03-15 07:59:47 51°16.617 2°52.677 325.3 12.8 328 12.8
2012-03-15 08:00:47 51°16.802 2°52.512 329.6 12.7 329 11.3
2012-03-15 08:01:48 51°16.988 2°52.344 331.8 12.7 330 11.2
2012-03-15 08:02:47 51°17.154 2°52.142 318.5 12.7 317 12.6
2012-03-15 08:03:47 51°17.292 2°51.892 307.8 12.7 308 12.1
2012-03-15 08:04:47 51°17.445 2°51.659 322.7 12.8 322 11.9
2012-03-15 08:05:47 51°17.613 2°51.452 327.2 12.9 327 10.9
2012-03-15 08:06:47 51°17.796 2°51.277 328.8 12.8 328 11.5
2012-03-15 08:07:47 51°17.976 2°51.092 327.4 12.9 326 13
2012-03-15 08:08:47 51°18.15 2°50.893 321.2 12.8 319 14.1
2012-03-15 08:09:47 51°18.31 2°50.668 320.7 12.9 321 15.1
2012-03-15 08:10:47 51°18.489 2°50.478 328.2 12.9 327 15.5
2012-03-15 08:11:47 51°18.665 2°50.285 325.9 12.9 325 15.7
2012-03-15 08:12:47 51°18.835 2°50.073 320.7 13 320 14.3
2012-03-15 08:13:47 51°19.007 2°49.868 326.7 12.9 328 12.3
2012-03-15 08:14:47 51°19.194 2°49.697 331.5 12.9 330 13.4
2012-03-15 08:15:47 51°19.374 2°49.512 324.5 12.9 322 15.2
2012-03-15 08:16:47 51°19.551 2°49.315 327.1 13 327 16.5
2012-03-15 08:17:47 51°19.739 2°49.141 330.9 13.1 330 19.2
2012-03-15 08:18:47 51°19.922 2°48.954 325.2 13.1 325 21.8
2012-03-15 08:19:47 51°20.107 2°48.769 328.6 13.2 330 23.6
2012-03-15 08:20:47 51°20.292 2°48.588 325.8 12.8 326 24
2012-03-15 08:21:47 51°20.483 2°48.435 338.3 12.9 338 23.5
2012-03-15 08:22:47 51°20.683 2°48.348 349.5 12.1 349 22.5
2012-03-15 08:23:47 51°20.877 2°48.276 346.5 11.8 345 21.3
2012-03-15 08:24:47 51°21.064 2°48.175 340.5 12 341 21.2
2012-03-15 08:25:47 51°21.26 2°48.096 347.7 12.2 348 23
2012-03-15 08:26:47 51°21.461 2°48.028 347 12.7 346 24.1
2012-03-15 08:27:47 51°21.665 2°47.92 341.7 13.1 342 24.2
2012-03-15 08:28:47 51°21.876 2°47.835 343.8 13.1 341 25.2
2012-03-15 08:29:47 51°22.058 2°47.661 318.6 12.8 320 25.3
2012-03-15 08:30:48 51°22.201 2°47.406 307.5 12.7 308 23.3
2012-03-15 08:31:47 51°22.34 2°47.155 311.3 12.9 313 20.2
2012-03-15 08:32:47 51°22.476 2°46.891 305.7 12.9 308 20.3
2012-03-15 08:33:47 51°22.622 2°46.64 314.9 12.8 318 17
2012-03-15 08:34:47 51°22.773 2°46.396 312.9 12.9 309 23.8
2012-03-15 08:35:47 51°22.904 2°46.12 309.1 13.1 308 24.2
2012-03-15 08:36:47 51°23.058 2°45.875 319.6 13 318 25.7
2012-03-15 08:37:47 51°23.203 2°45.623 310.5 12.9 308 28.5
2012-03-15 08:38:47 51°23.35 2°45.371 317.4 13 318 28
2012-03-15 08:39:47 51°23.508 2°45.139 317.3 12.8 317 28.3
2012-03-15 08:40:47 51°23.654 2°44.89 311.1 12.8 312 28.7
2012-03-15 08:41:47 51°23.807 2°44.65 317.7 12.8 318 28.1
2012-03-15 08:42:47 51°23.958 2°44.409 311.5 12.8 313 28
2012-03-15 08:43:47 51°24.12 2°44.187 325.7 13 326 28.1
2012-03-15 08:44:47 51°24.257 2°44.037 315.3 6.6 318 26.9
2012-03-15 08:45:47 51°24.33 2°43.931 316.8 5.4 320 28.1
2012-03-15 08:46:47 51°24.402 2°43.857 334.9 5 337 27.5
2012-03-15 08:47:47 51°24.48 2°43.809 337.1 5 340 25
2012-03-15 08:48:47 51°24.559 2°43.763 341.8 5 344 22.1
2012-03-15 08:49:47 51°24.627 2°43.731 332.2 3.7 336 25.2
2012-03-15 08:50:47 51°24.669 2°43.7 335 0.4 6 23.6
2012-03-15 08:51:50 51°24.67 2°43.702 335.7 0.2 16 24.5
2012-03-15 08:52:49 51°24.67 2°43.707 337.7 0.1 97 21.2
2012-03-15 08:53:48 51°24.672 2°43.711 340.5 0.3 49 23.3
2012-03-15 08:54:47 51°24.675 2°43.715 342.3 0.3 74 23.4
2012-03-15 08:55:47 51°24.674 2°43.717 346.3 0.2 129 21.7
2012-03-15 08:56:47 51°24.671 2°43.721 348.5 0.5 166 21.7
2012-03-15 08:57:50 51°24.652 2°43.727 349.2 1.5 170 -999
2012-03-15 08:58:50 51°24.636 2°43.732 348.5 0.2 149 25.5
2012-03-15 08:59:48 51°24.636 2°43.733 342.3 0.1 71 25.4
2012-03-15 09:00:47 51°24.638 2°43.733 337.3 0.1 331 25.4
2012-03-15 09:01:47 51°24.64 2°43.733 333.4 0.1 6 25.8
2012-03-15 09:02:47 51°24.641 2°43.736 331.8 0.1 86 25.9
2012-03-15 09:03:47 51°24.641 2°43.738 331.7 0.1 24 25.8
2012-03-15 09:04:47 51°24.643 2°43.74 332.5 0.2 352 25.8
2012-03-15 09:05:47 51°24.647 2°43.74 332.8 0.3 354 25.8
2012-03-15 09:06:48 51°24.646 2°43.744 335 0.5 153 25.7
2012-03-15 09:07:49 51°24.641 2°43.751 336.1 0.3 157 25.8
2012-03-15 09:08:47 51°24.639 2°43.755 335.9 0.1 115 25.7
2012-03-15 09:09:47 51°24.639 2°43.756 335.3 0.2 28 25.6
2012-03-15 09:10:47 51°24.641 2°43.756 336.4 0.2 11 25.4
2012-03-15 09:11:47 51°24.644 2°43.752 339.4 0.4 295 25.3
2012-03-15 09:12:47 51°24.648 2°43.75 343.5 0.3 16 25.4
2012-03-15 09:13:47 51°24.647 2°43.747 348.2 0.2 167 25.7
2012-03-15 09:14:47 51°24.64 2°43.747 346.1 0.6 173 25.7
2012-03-15 09:15:47 51°24.631 2°43.747 340.5 0.3 204 25.8
2012-03-15 09:16:47 51°24.631 2°43.744 342.2 0.2 286 26
2012-03-15 09:17:47 51°24.633 2°43.738 339.3 0.3 286 25.6
2012-03-15 09:18:47 51°24.636 2°43.733 334.8 0.3 273 25.4
2012-03-15 09:19:47 51°24.636 2°43.729 331.4 0.2 243 25.3
2012-03-15 09:20:49 51°24.628 2°43.736 326.7 0.9 152 -999
2012-03-15 09:21:49 51°24.617 2°43.749 324.9 0.8 135 25.5
2012-03-15 09:22:48 51°24.609 2°43.759 326.2 0.5 136 25.6
2012-03-15 09:23:47 51°24.606 2°43.764 327.2 0.1 83 25.9
2012-03-15 09:24:47 51°24.606 2°43.765 327.8 -999 64 25.9
2012-03-15 09:25:47 51°24.608 2°43.764 329.7 0.2 325 25.8
2012-03-15 09:26:47 51°24.609 2°43.762 331.8 0.1 350 25.6
2012-03-15 09:27:47 51°24.61 2°43.762 335.6 0.1 197 25.7
2012-03-15 09:28:47 51°24.607 2°43.761 340.4 0.1 175 25.9
2012-03-15 09:29:47 51°24.605 2°43.759 344.1 0.1 246 25.9
2012-03-15 09:30:47 51°24.605 2°43.755 346.4 0.2 286 25.6
2012-03-15 09:31:47 51°24.606 2°43.749 347.4 0.3 310 25.2
2012-03-15 09:32:47 51°24.609 2°43.742 348.6 0.4 312 24.8
2012-03-15 09:33:47 51°24.613 2°43.733 350 0.4 319 23.5
2012-03-15 09:34:47 51°24.618 2°43.724 352.4 0.4 308 22.8
2012-03-15 09:35:47 51°24.619 2°43.715 356.1 0.3 255 21.5
2012-03-15 09:36:47 51°24.614 2°43.705 357.2 0.5 220 22.7
2012-03-15 09:37:47 51°24.606 2°43.695 354.4 0.7 217 24.3
2012-03-15 09:38:47 51°24.597 2°43.689 353.4 0.5 215 24.5
2012-03-15 09:39:47 51°24.59 2°43.681 353.5 0.4 210 24.8
2012-03-15 09:40:47 51°24.586 2°43.672 353.9 0.4 234 25.2
2012-03-15 09:41:47 51°24.582 2°43.663 354.2 0.4 241 25
2012-03-15 09:42:47 51°24.58 2°43.653 354.1 0.4 275 24.9
2012-03-15 09:43:47 51°24.579 2°43.643 355 0.4 273 24.3
2012-03-15 09:44:47 51°24.581 2°43.634 357.7 0.3 289 23.2
2012-03-15 09:45:47 51°24.585 2°43.622 1.2 0.6 304 23.2
2012-03-15 09:46:47 51°24.589 2°43.61 5.7 0.6 302 20.7
2012-03-15 09:47:47 51°24.594 2°43.598 10.5 0.4 310 19.1
2012-03-15 09:48:47 51°24.6 2°43.586 15.7 0.6 309 20.2
2012-03-15 09:49:47 51°24.607 2°43.574 19.8 0.6 304 20.8
2012-03-15 09:50:47 51°24.612 2°43.562 23 0.5 305 20.8
2012-03-15 09:51:47 51°24.619 2°43.55 26.2 0.7 313 20.9
2012-03-15 09:52:47 51°24.624 2°43.538 30.2 0.6 317 21.6
2012-03-15 09:53:47 51°24.631 2°43.529 40.5 0.7 320 21.7
2012-03-15 09:54:47 51°24.637 2°43.519 46.1 0.6 315 22.3
2012-03-15 09:55:47 51°24.644 2°43.51 54.3 0.7 334 22.4
2012-03-15 09:56:47 51°24.651 2°43.508 70.5 0.6 342 22.4
2012-03-15 09:57:47 51°24.656 2°43.51 83.8 0.3 349 21.6
2012-03-15 09:58:47 51°24.66 2°43.507 88 0.2 306 21.7
2012-03-15 09:59:47 51°24.663 2°43.502 88.2 0.3 296 21.8
2012-03-15 10:00:47 51°24.667 2°43.494 87.2 0.3 302 21.9
2012-03-15 10:01:47 51°24.672 2°43.485 87 0.5 295 22.2
2012-03-15 10:02:47 51°24.676 2°43.477 87.2 0.4 293 22.3
2012-03-15 10:03:47 51°24.679 2°43.477 87.9 0.3 70 22.6
2012-03-15 10:04:47 51°24.682 2°43.489 93.9 0.8 85 21.4
2012-03-15 10:05:47 51°24.681 2°43.518 102.3 1.4 93 18.8
2012-03-15 10:06:47 51°24.674 2°43.56 105.5 1.8 108 21.9
2012-03-15 10:07:47 51°24.665 2°43.607 106.1 1.7 108 23.9
2012-03-15 10:08:47 51°24.658 2°43.645 104.6 1.4 103 23.3
2012-03-15 10:09:47 51°24.653 2°43.677 103.1 1.1 103 22
2012-03-15 10:10:47 51°24.654 2°43.705 80.9 1.2 74 24.1
2012-03-15 10:11:47 51°24.661 2°43.722 64.1 0.4 43 24.8
2012-03-15 10:12:47 51°24.668 2°43.724 52.3 0.4 10 23.7
2012-03-15 10:13:47 51°24.675 2°43.721 51.2 0.4 332 21.7
2012-03-15 10:14:47 51°24.682 2°43.717 55.8 0.4 339 23.7
2012-03-15 10:15:47 51°24.687 2°43.711 61.3 0.3 322 24.1
2012-03-15 10:16:47 51°24.692 2°43.704 66.1 0.4 305 23.9
2012-03-15 10:17:47 51°24.695 2°43.695 70.4 0.3 277 24.2
2012-03-15 10:18:47 51°24.698 2°43.683 73.3 0.5 270 23.6
2012-03-15 10:19:47 51°24.7 2°43.671 75.9 0.5 263 22.8
2012-03-15 10:20:47 51°24.702 2°43.655 77.6 0.7 262 20.3
2012-03-15 10:21:47 51°24.704 2°43.639 77.1 0.7 277 20.5
2012-03-15 10:22:47 51°24.705 2°43.631 81.6 0.5 76 21.7
2012-03-15 10:23:47 51°24.7 2°43.668 105.2 2.2 103 22.1
2012-03-15 10:24:47 51°24.69 2°43.735 96 2.6 98 23.2
2012-03-15 10:25:47 51°24.688 2°43.79 95.2 1.5 96 23.3
2012-03-15 10:26:47 51°24.683 2°43.805 119.1 0.4 153 24.5
2012-03-15 10:27:47 51°24.681 2°43.802 129.6 0.2 287 24
2012-03-15 10:28:47 51°24.679 2°43.793 128.1 0.4 275 23
2012-03-15 10:29:47 51°24.678 2°43.784 124.9 0.3 273 20.5
2012-03-15 10:30:47 51°24.677 2°43.774 123.9 0.4 273 21.4
2012-03-15 10:31:47 51°24.676 2°43.763 123.5 0.4 284 21.9
2012-03-15 10:32:47 51°24.675 2°43.753 125.9 0.3 269 22.3
2012-03-15 10:33:47 51°24.675 2°43.74 128.7 0.5 265 22.8
2012-03-15 10:34:47 51°24.676 2°43.729 130.7 0.4 269 23.1
2012-03-15 10:35:47 51°24.675 2°43.719 134.7 0.3 260 20.9
2012-03-15 10:36:47 51°24.675 2°43.707 135.9 0.4 282 20.3
2012-03-15 10:37:47 51°24.675 2°43.693 134.4 0.6 288 22.6
2012-03-15 10:38:47 51°24.673 2°43.677 130.7 0.7 260 19.9
2012-03-15 10:39:47 51°24.671 2°43.667 121.3 0.6 150 20.3
2012-03-15 10:40:47 51°24.668 2°43.693 83.5 1.7 79 21.2
2012-03-15 10:41:47 51°24.676 2°43.75 73 2.2 67 22.3
2012-03-15 10:42:47 51°24.686 2°43.772 46.5 0.3 273 21.4
2012-03-15 10:43:50 51°24.683 2°43.754 30.6 0.6 297 4.9
2012-03-15 10:44:51 51°24.677 2°43.734 20.4 0.8 231 -999
2012-03-15 10:45:49 51°24.671 2°43.715 21.5 0.9 246 20.8
2012-03-15 10:46:47 51°24.667 2°43.695 25.5 0.9 258 21.7
2012-03-15 10:47:47 51°24.663 2°43.672 28.3 1.1 262 19.9
2012-03-15 10:48:47 51°24.66 2°43.65 28.8 1 265 22.5
2012-03-15 10:49:47 51°24.658 2°43.628 28.4 0.9 266 23.4
2012-03-15 10:50:47 51°24.656 2°43.605 27.7 1 267 23.6
2012-03-15 10:51:47 51°24.661 2°43.596 52.6 0.7 28 23.3
2012-03-15 10:52:47 51°24.668 2°43.629 82.6 1.8 77 23.3
2012-03-15 10:53:47 51°24.677 2°43.674 69 1.6 68 20.4
2012-03-15 10:54:47 51°24.684 2°43.711 88 1.3 94 23.6
2012-03-15 10:55:47 51°24.678 2°43.742 102.4 0.7 121 22.4
2012-03-15 10:56:47 51°24.673 2°43.736 110.5 0.5 241 23.5
2012-03-15 10:57:47 51°24.67 2°43.724 110.4 0.5 259 23.4
2012-03-15 10:58:47 51°24.667 2°43.711 107.7 0.5 243 23
2012-03-15 10:59:47 51°24.663 2°43.696 104.1 0.5 253 21.9
2012-03-15 11:00:47 51°24.66 2°43.68 103.9 0.7 254 19.9
2012-03-15 11:01:47 51°24.657 2°43.665 106.7 0.6 256 21.5
2012-03-15 11:02:47 51°24.654 2°43.651 109.7 0.5 243 22.3
2012-03-15 11:03:47 51°24.652 2°43.662 76.5 1.1 64 21.8
2012-03-15 11:04:47 51°24.671 2°43.698 56.9 2 55 22.8
2012-03-15 11:05:47 51°24.682 2°43.742 85.4 1.6 95 22.4
2012-03-15 11:06:47 51°24.675 2°43.761 118.4 0.5 237 21.9
2012-03-15 11:07:47 51°24.674 2°43.74 129.1 1 272 23.2
2012-03-15 11:08:50 51°24.673 2°43.717 123.4 0.5 228 20.5
2012-03-15 11:09:49 51°24.668 2°43.709 94.6 0.4 227 22.2
2012-03-15 11:10:47 51°24.665 2°43.698 85.1 0.5 246 21.6
2012-03-15 11:11:47 51°24.663 2°43.682 84.3 0.6 264 19.3
2012-03-15 11:12:47 51°24.66 2°43.666 88.1 0.6 254 21.1
2012-03-15 11:13:47 51°24.657 2°43.649 94.2 0.6 263 22.3
2012-03-15 11:14:47 51°24.653 2°43.631 99.9 0.7 267 23.5
2012-03-15 11:15:47 51°24.649 2°43.612 104.6 0.7 256 23.5
2012-03-15 11:16:47 51°24.647 2°43.61 82.8 1.3 80 23.5
2012-03-15 11:17:47 51°24.689 2°43.674 43.4 6.1 37 21.5
2012-03-15 11:18:47 51°24.795 2°43.784 37.8 8.3 33 23.5
2012-03-15 11:19:47 51°24.925 2°43.922 39 10.3 35 22.1
2012-03-15 11:20:47 51°25.075 2°44.1 42.7 11.7 40 23
2012-03-15 11:21:47 51°25.218 2°44.315 45.9 11.9 44 23.4
2012-03-15 11:22:47 51°25.372 2°44.511 42.5 11.8 40 23.3
2012-03-15 11:23:47 51°25.517 2°44.721 44.9 11.7 42 24.6
2012-03-15 11:24:47 51°25.67 2°44.917 39.1 11.8 35 23.2
2012-03-15 11:25:47 51°25.824 2°45.113 44.5 11.8 43 25
2012-03-15 11:26:47 51°25.973 2°45.317 39.1 11.9 35 25.9
2012-03-15 11:27:47 51°26.132 2°45.502 43.4 11.8 42 25.7
2012-03-15 11:28:47 51°26.279 2°45.711 43.2 11.8 39 25.6
2012-03-15 11:29:47 51°26.434 2°45.905 40 11.9 36 26.5
2012-03-15 11:30:47 51°26.597 2°46.083 36.4 11.9 33 27.7
2012-03-15 11:31:47 51°26.758 2°46.27 42.2 12 42 30
2012-03-15 11:32:47 51°26.902 2°46.486 44.7 11.8 42 29.2
2012-03-15 11:33:47 51°27.05 2°46.698 43.1 11.9 41 30.2
2012-03-15 11:34:47 51°27.213 2°46.882 38.2 12 35 29.5
2012-03-15 11:35:47 51°27.371 2°47.076 44.1 11.9 41 29.6
2012-03-15 11:36:47 51°27.523 2°47.276 41.8 11.8 37 28.2
2012-03-15 11:37:47 51°27.685 2°47.457 39.3 11.9 37 30.7
2012-03-15 11:38:47 51°27.838 2°47.659 43.6 11.9 40 29.4
2012-03-15 11:39:47 51°27.989 2°47.862 40.3 11.9 36 28.8
2012-03-15 11:40:47 51°28.155 2°48.04 36.4 12.1 34 32.7
2012-03-15 11:41:47 51°28.314 2°48.236 44.9 11.9 40 30.8
2012-03-15 11:42:47 51°28.465 2°48.44 43.8 11.8 38 29.4
2012-03-15 11:43:46 51°28.627 2°48.611 35.4 12 29 29.9
2012-03-15 11:44:47 51°28.801 2°48.779 38.1 12 32 27.8
2012-03-15 11:45:47 51°28.964 2°48.96 44.1 11.7 39 26.8
2012-03-15 11:46:47 51°29.111 2°49.166 45.8 11.8 40 26.6
2012-03-15 11:47:47 51°29.267 2°49.356 41.4 11.7 36 26.7
2012-03-15 11:48:47 51°29.421 2°49.551 44.7 11.8 40 27.9
2012-03-15 11:49:47 51°29.582 2°49.735 38.2 12 32 29.3
2012-03-15 11:50:47 51°29.746 2°49.915 42.4 12 39 26.9
2012-03-15 11:51:47 51°29.9 2°50.117 43.3 11.8 38 26.7
2012-03-15 11:52:47 51°30.066 2°50.291 37.2 11.6 35 22
2012-03-15 11:53:47 51°30.196 2°50.519 55 11.7 55 23.2
2012-03-15 11:54:47 51°30.311 2°50.766 53.4 11.6 52 21.3
2012-03-15 11:55:47 51°30.436 2°51.002 47.8 11.6 47 22.4
2012-03-15 11:56:47 51°30.574 2°51.218 48 11.6 47 21.7
2012-03-15 11:57:47 51°30.692 2°51.465 54.1 11.7 53 20.6
2012-03-15 11:58:47 51°30.816 2°51.702 47.4 11.5 46 20
2012-03-15 11:59:47 51°30.947 2°51.929 51.6 11.6 51 19
2012-03-15 12:00:47 51°31.078 2°52.151 43.7 11.2 41 21.5
2012-03-15 12:01:47 51°31.155 2°52.284 65.6 4.8 68 20.7
2012-03-15 12:02:47 51°31.208 2°52.376 44.8 5.8 50 21.6
2012-03-15 12:03:46 51°31.234 2°52.467 72.5 2.1 90 19
2012-03-15 12:04:47 51°31.223 2°52.472 109.9 0.8 217 20.7
2012-03-15 12:05:47 51°31.209 2°52.457 124.2 0.8 219 21.4
2012-03-15 12:06:47 51°31.199 2°52.442 120.2 0.5 237 21.5
2012-03-15 12:07:47 51°31.194 2°52.438 77.9 0.3 157 21.7
2012-03-15 12:08:47 51°31.192 2°52.443 57.9 0.2 113 21.8
2012-03-15 12:09:47 51°31.191 2°52.447 53.3 -999 127 21.5
2012-03-15 12:10:47 51°31.19 2°52.447 49.6 0.1 205 21.6
2012-03-15 12:11:47 51°31.19 2°52.445 45.4 -999 252 21.8
2012-03-15 12:12:47 51°31.191 2°52.445 44.2 0.1 29 21.8
2012-03-15 12:13:47 51°31.191 2°52.444 43.3 0.1 297 21.8
2012-03-15 12:14:47 51°31.191 2°52.443 42.9 -999 101 21.7
2012-03-15 12:15:47 51°31.191 2°52.442 42.4 0.1 300 21.7
2012-03-15 12:16:47 51°31.192 2°52.442 43.8 0.1 308 21.8
2012-03-15 12:17:47 51°31.191 2°52.442 45.6 0.1 171 21.7
2012-03-15 12:18:47 51°31.191 2°52.443 44.9 0.2 308 21.8
2012-03-15 12:19:47 51°31.191 2°52.443 43.6 0.1 326 21.8
2012-03-15 12:20:47 51°31.191 2°52.443 43.4 0.1 300 21.8
2012-03-15 12:21:47 51°31.191 2°52.442 42.9 0.2 311 21.8
2012-03-15 12:22:47 51°31.191 2°52.442 43.8 0.1 266 21.8
2012-03-15 12:23:47 51°31.191 2°52.443 43.6 -999 292 21.9
2012-03-15 12:24:47 51°31.191 2°52.443 41.5 0.1 359 21.9
2012-03-15 12:25:47 51°31.191 2°52.442 41.5 0.1 117 21.8
2012-03-15 12:26:47 51°31.191 2°52.442 42.9 0.1 182 21.7
2012-03-15 12:27:47 51°31.191 2°52.442 43.5 0.1 138 21.9
2012-03-15 12:28:47 51°31.191 2°52.443 42.2 0.1 97 21.9
2012-03-15 12:29:47 51°31.191 2°52.442 41.7 -999 159 21.8
2012-03-15 12:30:47 51°31.191 2°52.442 41.9 -999 124 21.7
2012-03-15 12:31:47 51°31.191 2°52.441 42.8 -999 193 21.8
2012-03-15 12:32:46 51°31.191 2°52.442 43.7 0.1 207 21.9
2012-03-15 12:33:47 51°31.191 2°52.442 43.2 -999 312 21.8
2012-03-15 12:34:47 51°31.191 2°52.442 41.6 0.1 47 21.8
2012-03-15 12:35:47 51°31.192 2°52.441 41.3 0.1 343 21.8
2012-03-15 12:36:47 51°31.192 2°52.442 41.5 0.1 318 21.8
2012-03-15 12:37:47 51°31.192 2°52.442 41.5 0.1 332 21.8
2012-03-15 12:38:47 51°31.191 2°52.442 42.5 0.1 247 21.7
2012-03-15 12:39:47 51°31.191 2°52.442 41.9 0.1 230 21.9
2012-03-15 12:40:47 51°31.191 2°52.443 41.5 0.2 125 21.8
2012-03-15 12:41:47 51°31.191 2°52.442 40.4 0.1 243 21.8
2012-03-15 12:42:47 51°31.191 2°52.442 41 0.1 103 21.8
2012-03-15 12:43:47 51°31.191 2°52.443 42.3 0.1 112 21.8
2012-03-15 12:44:47 51°31.191 2°52.443 40.6 -999 270 21.9
2012-03-15 12:45:47 51°31.191 2°52.443 41.5 -999 142 21.8
2012-03-15 12:46:47 51°31.191 2°52.444 41.4 0.2 59 21.9
2012-03-15 12:47:47 51°31.199 2°52.453 39.9 0.6 47 21.8
2012-03-15 12:48:47 51°31.209 2°52.466 40 0.7 44 21.4
2012-03-15 12:49:47 51°31.216 2°52.477 43.1 0.5 36 21.1
2012-03-15 12:50:47 51°31.219 2°52.481 42.8 0.1 336 21.1
2012-03-15 12:51:47 51°31.217 2°52.48 42.6 0.2 191 21
2012-03-15 12:52:47 51°31.215 2°52.496 71.2 1.4 103 21.2
2012-03-15 12:53:47 51°31.188 2°52.542 124.5 3.2 152 21.3
2012-03-15 12:54:47 51°31.121 2°52.566 160.5 5.5 171 20.1
2012-03-15 12:55:47 51°30.992 2°52.605 166 9.6 173 20.9
2012-03-15 12:56:47 51°30.815 2°52.587 183 11.5 187 18.6
2012-03-15 12:57:47 51°30.609 2°52.549 181.8 13.1 186 21.3
2012-03-15 12:58:47 51°30.391 2°52.504 185.8 13.4 190 28.2
2012-03-15 12:59:47 51°30.174 2°52.428 188.8 13.3 192 29.6
2012-03-15 13:00:47 51°29.957 2°52.379 182 13.1 185 29
2012-03-15 13:01:47 51°29.745 2°52.325 189.5 12.9 193 29.3
2012-03-15 13:02:47 51°29.532 2°52.255 187.3 13 190 30.2
2012-03-15 13:03:47 51°29.316 2°52.219 181.5 13.1 185 30.2
2012-03-15 13:04:47 51°29.1 2°52.177 185.3 13.2 189 31.2
2012-03-15 13:05:47 51°28.885 2°52.101 188 13.3 191 29.8
2012-03-15 13:06:47 51°28.667 2°52.048 182.9 13.2 188 28.8
2012-03-15 13:07:47 51°28.45 2°51.962 190.3 13.6 196 27.3
2012-03-15 13:08:47 51°28.233 2°51.89 182 13.3 188 26.1
2012-03-15 13:09:47 51°28.013 2°51.826 189.6 13.5 195 23.5
2012-03-15 13:10:47 51°27.795 2°51.742 186.3 13.4 190 21.3
2012-03-15 13:11:47 51°27.576 2°51.714 174.4 13.1 179 21.2
2012-03-15 13:12:47 51°27.359 2°51.723 175 13.1 179 21
2012-03-15 13:13:47 51°27.143 2°51.709 179 12.3 184 21.7
2012-03-15 13:14:47 51°26.979 2°51.696 170.9 7.8 179 19.9
2012-03-15 13:15:47 51°26.879 2°51.67 194.4 5.5 206 24.7
2012-03-15 13:16:47 51°26.802 2°51.608 186 5.2 199 24.6
2012-03-15 13:17:47 51°26.715 2°51.576 172.2 5 182 24.5
2012-03-15 13:18:47 51°26.669 2°51.629 89.7 3.1 94 25.4
2012-03-15 13:19:47 51°26.7 2°51.68 40.3 2.7 28 25.2
2012-03-15 13:20:47 51°26.718 2°51.684 51.9 1 255 25.2
2012-03-15 13:21:47 51°26.711 2°51.657 72.1 1.2 245 25.3
2012-03-15 13:22:47 51°26.702 2°51.63 78.8 1.1 238 24.9
2012-03-15 13:23:47 51°26.702 2°51.626 65.4 0.3 63 25.1
2012-03-15 13:24:47 51°26.703 2°51.632 64 0.2 137 24.9
2012-03-15 13:25:47 51°26.703 2°51.63 61.6 0.2 259 24.8
2012-03-15 13:26:47 51°26.702 2°51.625 59.7 0.1 230 25.1
2012-03-15 13:27:47 51°26.702 2°51.627 61.8 0.2 56 25
2012-03-15 13:28:47 51°26.703 2°51.63 60 0.1 21 24.9
2012-03-15 13:29:47 51°26.703 2°51.628 59.6 0.1 306 24.9
2012-03-15 13:30:47 51°26.702 2°51.626 59.5 0.1 232 25.2
2012-03-15 13:31:47 51°26.702 2°51.627 60 0.1 218 25.1
2012-03-15 13:32:47 51°26.703 2°51.628 58.8 0.1 47 24.9
2012-03-15 13:33:47 51°26.703 2°51.626 58.6 0.1 211 25
2012-03-15 13:34:47 51°26.703 2°51.627 60.1 0.1 46 25.1
2012-03-15 13:35:47 51°26.702 2°51.627 61.6 0.1 151 25.2
2012-03-15 13:36:47 51°26.702 2°51.629 61.5 0.1 170 25.1
2012-03-15 13:37:47 51°26.701 2°51.629 60.4 0.1 120 25.2
2012-03-15 13:38:47 51°26.701 2°51.628 58.2 -999 293 25.3
2012-03-15 13:39:47 51°26.702 2°51.628 58.5 0.2 -999 25.1
2012-03-15 13:40:47 51°26.702 2°51.629 57.9 0.1 193 25.1
2012-03-15 13:41:47 51°26.702 2°51.629 57.9 0.2 179 25.1
2012-03-15 13:42:47 51°26.702 2°51.629 58.9 0.1 178 25.1
2012-03-15 13:43:47 51°26.702 2°51.629 60.5 0.1 159 25.2
2012-03-15 13:44:47 51°26.701 2°51.63 60.5 0.1 178 25.2
2012-03-15 13:45:47 51°26.701 2°51.629 58.8 0.1 60 25.3
2012-03-15 13:46:47 51°26.701 2°51.628 56.8 0.1 340 25.3
2012-03-15 13:47:47 51°26.702 2°51.628 56.3 -999 342 25.2
2012-03-15 13:48:47 51°26.702 2°51.627 59.6 0.1 178 25.2
2012-03-15 13:49:47 51°26.702 2°51.628 62 0.1 36 25.4
2012-03-15 13:50:47 51°26.701 2°51.629 60.8 0.1 30 25.4
2012-03-15 13:51:47 51°26.701 2°51.628 59.6 0.2 185 25.5
2012-03-15 13:52:47 51°26.7 2°51.628 59.2 0.1 181 25.3
2012-03-15 13:53:47 51°26.701 2°51.627 58.9 0.1 277 25.2
2012-03-15 13:54:47 51°26.701 2°51.627 60.1 0.2 194 25.3
2012-03-15 13:55:47 51°26.701 2°51.628 60.5 0.1 340 25.2
2012-03-15 13:56:47 51°26.702 2°51.628 59.9 -999 120 25.2
2012-03-15 13:57:47 51°26.702 2°51.629 59.8 0.1 134 25.2
2012-03-15 13:58:47 51°26.702 2°51.628 61 0.1 139 25.3
2012-03-15 13:59:47 51°26.701 2°51.628 59.6 0.1 14 25.2
2012-03-15 14:00:47 51°26.701 2°51.628 59.6 0.1 52 25.4
2012-03-15 14:01:47 51°26.701 2°51.628 58.5 -999 149 25.4
2012-03-15 14:02:47 51°26.702 2°51.627 59.1 0.1 23 25.3
2012-03-15 14:03:47 51°26.702 2°51.628 60 -999 81 25.5
2012-03-15 14:04:47 51°26.701 2°51.628 59.1 0.1 196 25.4
2012-03-15 14:05:47 51°26.702 2°51.628 59.2 0.1 350 25.3
2012-03-15 14:06:47 51°26.702 2°51.628 59.2 0.1 146 25.4
2012-03-15 14:07:47 51°26.702 2°51.628 59.4 0.1 87 25.4
2012-03-15 14:08:47 51°26.702 2°51.627 58.6 0.1 2 25.5
2012-03-15 14:09:47 51°26.701 2°51.628 58.5 0.1 145 25.4
2012-03-15 14:10:47 51°26.701 2°51.628 57.8 -999 357 25.4
2012-03-15 14:11:47 51°26.702 2°51.628 59.2 0.1 195 25.3
2012-03-15 14:12:47 51°26.702 2°51.627 59.4 -999 347 25.6
2012-03-15 14:13:47 51°26.702 2°51.627 58.6 0.1 159 25.4
2012-03-15 14:14:47 51°26.703 2°51.63 58.5 0.3 55 25.2
2012-03-15 14:15:47 51°26.707 2°51.639 59.7 0.6 71 25.5
2012-03-15 14:16:47 51°26.71 2°51.655 64 0.7 68 25.4
2012-03-15 14:17:47 51°26.712 2°51.668 61.7 0.2 97 25.6
2012-03-15 14:18:47 51°26.712 2°51.666 55.8 0.3 248 25.6
2012-03-15 14:19:47 51°26.712 2°51.665 68.6 0.4 82 25.4
2012-03-15 14:20:47 51°26.694 2°51.69 121.6 2.4 152 25.8
2012-03-15 14:21:47 51°26.624 2°51.723 160.2 6.5 173 26.4
2012-03-15 14:22:47 51°26.488 2°51.727 169.9 9.8 176 26.1
2012-03-15 14:23:47 51°26.311 2°51.742 175.2 11.3 182 26.6
2012-03-15 14:24:47 51°26.109 2°51.717 182.5 12.5 187 28
2012-03-15 14:25:47 51°25.902 2°51.688 177.2 12.2 181 31.8
2012-03-15 14:26:47 51°25.697 2°51.706 169.2 12.3 175 27.1
2012-03-15 14:27:47 51°25.488 2°51.702 179.4 13 184 24.8
2012-03-15 14:28:47 51°25.277 2°51.682 175.2 12.7 179 23.4
2012-03-15 14:29:47 51°25.068 2°51.69 172 12.6 177 23.3
2012-03-15 14:30:47 51°24.858 2°51.68 180.3 12.9 184 23.1
2012-03-15 14:31:47 51°24.647 2°51.652 179.6 12.7 184 22.7
2012-03-15 14:32:47 51°24.439 2°51.657 172 12.5 178 22.1
2012-03-15 14:33:47 51°24.23 2°51.669 174.3 12.4 178 20.5
2012-03-15 14:34:47 51°24.022 2°51.657 181.5 12.6 184 20.3
2012-03-15 14:35:47 51°23.814 2°51.65 174.4 12.5 178 18.5
2012-03-15 14:36:47 51°23.607 2°51.666 174 12.5 177 16.6
2012-03-15 14:37:47 51°23.4 2°51.658 180.8 12.6 182 15.7
2012-03-15 14:38:47 51°23.191 2°51.645 179.1 12.5 181 17.1
2012-03-15 14:39:47 51°22.984 2°51.648 174.6 12.6 179 23.2
2012-03-15 14:40:47 51°22.79 2°51.669 170.2 10.7 176 23.6
2012-03-15 14:41:47 51°22.618 2°51.686 171.4 10 176 24
2012-03-15 14:42:47 51°22.453 2°51.685 178.1 10.2 183 23.7
2012-03-15 14:43:47 51°22.285 2°51.674 177 10.2 181 24.4
2012-03-15 14:44:47 51°22.111 2°51.669 173.6 10.7 178 24.4
2012-03-15 14:45:47 51°21.936 2°51.692 170 10.5 176 24.8
2012-03-15 14:46:47 51°21.747 2°51.712 172.3 11.9 178 24.9
2012-03-15 14:47:47 51°21.548 2°51.697 181.8 12 185 23.8
2012-03-15 14:48:47 51°21.348 2°51.675 177.6 12 181 22.3
2012-03-15 14:49:46 51°21.149 2°51.647 182.6 12.1 186 20.1
2012-03-15 14:50:47 51°20.944 2°51.608 185.4 12.2 190 18.2
2012-03-15 14:51:47 51°20.744 2°51.533 192.9 12.2 196 16.4
2012-03-15 14:52:47 51°20.545 2°51.445 191.5 12.6 195 15
2012-03-15 14:53:47 51°20.345 2°51.379 185.2 12.3 189 14.2
2012-03-15 14:54:47 51°20.144 2°51.315 189.5 12.2 193 13
2012-03-15 14:55:47 51°19.944 2°51.232 192.3 12.5 195 12.1
2012-03-15 14:56:47 51°19.744 2°51.182 177.3 12.2 180 14.2
2012-03-15 14:57:47 51°19.541 2°51.187 174.8 12.2 180 15.6
2012-03-15 14:58:46 51°19.34 2°51.171 181.8 12.1 184 15.9
2012-03-15 14:59:47 51°19.144 2°51.235 156.8 11.8 161 15.9
2012-03-15 15:00:46 51°18.96 2°51.335 157.7 11.9 164 15.5
2012-03-15 15:01:47 51°18.767 2°51.43 158.8 11.9 163 15
2012-03-15 15:02:47 51°18.57 2°51.494 165.2 12 170 14.3
2012-03-15 15:03:47 51°18.375 2°51.568 158.3 12 163 13.1
2012-03-15 15:04:47 51°18.184 2°51.661 160 12.1 163 12.2
2012-03-15 15:05:47 51°17.993 2°51.752 159.8 11.9 163 11.3
2012-03-15 15:06:47 51°17.805 2°51.854 155.5 12 158 11.1
2012-03-15 15:07:46 51°17.629 2°51.987 149.7 11.8 153 11.2
2012-03-15 15:08:46 51°17.445 2°52.113 157.4 12.2 162 12.2
2012-03-15 15:09:46 51°17.263 2°52.236 149 11.9 150 12.2
2012-03-15 15:10:46 51°17.093 2°52.397 147.5 11.9 151 10.8
2012-03-15 15:11:46 51°16.92 2°52.552 147.9 12 153 10.9
2012-03-15 15:12:46 51°16.741 2°52.691 149.9 11.9 154 10.9
2012-03-15 15:13:46 51°16.561 2°52.827 150.9 11.8 151 12.7
2012-03-15 15:14:46 51°16.393 2°52.992 146.9 11.8 148 13.4
2012-03-15 15:15:46 51°16.217 2°53.132 153.6 11.9 155 13.2
2012-03-15 15:16:46 51°16.041 2°53.272 148.2 11.8 149 13
2012-03-15 15:17:47 51°15.873 2°53.438 146.7 11.7 149 13.3
2012-03-15 15:18:46 51°15.706 2°53.589 146.7 11.5 149 12.9
2012-03-15 15:19:46 51°15.553 2°53.775 139.7 11.5 141 12.7
2012-03-15 15:20:46 51°15.406 2°53.969 139 11.3 142 12.7
2012-03-15 15:21:46 51°15.258 2°54.158 141.1 11.4 142 12.5
2012-03-15 15:22:46 51°15.111 2°54.353 140.3 11.5 141 12.3
2012-03-15 15:23:46 51°14.961 2°54.544 140.8 11.6 142 12.6
2012-03-15 15:24:47 51°14.813 2°54.742 141.3 11.4 142 12.5
2012-03-15 15:25:46 51°14.663 2°54.92 145.8 11.5 145 12.5
2012-03-15 15:26:46 51°14.505 2°55.089 149.1 11.4 148 11.5
2012-03-15 15:27:48 51°14.338 2°55.241 150.5 10.5 151 -999
2012-03-15 15:28:49 51°14.211 2°55.347 154 7.5 155 11.5
2012-03-15 15:29:50 51°14.1 2°55.434 155.1 7.5 155 -999
2012-03-15 15:30:50 51°13.985 2°55.517 155.4 7.2 156 11.5
2012-03-15 15:31:50 51°13.882 2°55.59 156 6.7 156 11.6
2012-03-15 15:32:49 51°13.795 2°55.658 152 5.1 150 -999
2012-03-15 15:33:49 51°13.738 2°55.734 132.6 4.2 131 12
2012-03-15 15:34:49 51°13.698 2°55.821 125.5 4 125 11.5
2012-03-15 15:35:50 51°13.662 2°55.912 123.1 3.8 120 10.5
2012-03-15 15:36:49 51°13.64 2°55.993 109.4 2.9 108 -999
2012-03-15 15:37:50 51°13.636 2°56.018 115.7 0.3 114 9